sensor_id;sensor_type;location;lat;lon;timestamp;temperature;humidity
8965;DHT22;4517;49.020;12.066;2022-11-11T00:02:11;6.30;99.90
8965;DHT22;4517;49.020;12.066;2022-11-11T00:04:36;6.40;99.90
8965;DHT22;4517;49.020;12.066;2022-11-11T00:07:02;6.40;99.90
8965;DHT22;4517;49.020;12.066;2022-11-11T00:09:27;6.40;99.90
8965;DHT22;4517;49.020;12.066;2022-11-11T00:11:53;6.40;99.90
8965;DHT22;4517;49.020;12.066;2022-11-11T00:14:19;6.30;99.90
8965;DHT22;4517;49.020;12.066;2022-11-11T00:16:44;6.30;99.90
8965;DHT22;4517;49.020;12.066;2022-11-11T00:19:28;6.30;99.90
8965;DHT22;4517;49.020;12.066;2022-11-11T00:22:20;6.30;99.90
8965;DHT22;4517;49.020;12.066;2022-11-11T00:25:05;6.30;99.90
8965;DHT22;4517;49.020;12.066;2022-11-11T00:27:31;6.30;99.90
8965;DHT22;4517;49.020;12.066;2022-11-11T00:29:57;6.30;99.90
8965;DHT22;4517;49.020;12.066;2022-11-11T00:35:44;6.20;99.90
8965;DHT22;4517;49.020;12.066;2022-11-11T00:41:41;6.10;99.90
8965;DHT22;4517;49.020;12.066;2022-11-11T00:44:07;6.00;99.90
8965;DHT22;4517;49.020;12.066;2022-11-11T00:46:32;6.00;99.90
8965;DHT22;4517;49.020;12.066;2022-11-11T00:49:16;6.00;99.90
8965;DHT22;4517;49.020;12.066;2022-11-11T00:55:23;6.00;99.90
8965;DHT22;4517;49.020;12.066;2022-11-11T00:57:48;6.00;99.90
8965;DHT22;4517;49.020;12.066;2022-11-11T01:00:14;6.00;99.90
8965;DHT22;4517;49.020;12.066;2022-11-11T01:02:40;5.90;99.90
8965;DHT22;4517;49.020;12.066;2022-11-11T01:05:05;5.90;99.90
8965;DHT22;4517;49.020;12.066;2022-11-11T01:07:31;5.90;99.90
8965;DHT22;4517;49.020;12.066;2022-11-11T01:09:57;5.90;99.90
8965;DHT22;4517;49.020;12.066;2022-11-11T01:12:22;5.80;99.90
8965;DHT22;4517;49.020;12.066;2022-11-11T01:14:48;5.80;99.90
8965;DHT22;4517;49.020;12.066;2022-11-11T01:17:13;5.90;99.90
8965;DHT22;4517;49.020;12.066;2022-11-11T01:19:39;5.90;99.90
8965;DHT22;4517;49.020;12.066;2022-11-11T01:22:04;5.90;99.90
8965;DHT22;4517;49.020;12.066;2022-11-11T01:24:30;5.80;99.90
8965;DHT22;4517;49.020;12.066;2022-11-11T01:26:55;5.80;99.90
8965;DHT22;4517;49.020;12.066;2022-11-11T01:29:21;5.90;99.90
8965;DHT22;4517;49.020;12.066;2022-11-11T01:31:47;5.90;99.90
8965;DHT22;4517;49.020;12.066;2022-11-11T01:34:12;5.90;99.90
8965;DHT22;4517;49.020;12.066;2022-11-11T01:36:38;5.90;99.90
8965;DHT22;4517;49.020;12.066;2022-11-11T01:39:03;5.90;99.90
8965;DHT22;4517;49.020;12.066;2022-11-11T01:41:32;5.90;99.90
8965;DHT22;4517;49.020;12.066;2022-11-11T01:47:05;6.00;99.90
8965;DHT22;4517;49.020;12.066;2022-11-11T01:49:59;6.00;99.90
8965;DHT22;4517;49.020;12.066;2022-11-11T01:52:37;6.00;99.90
8965;DHT22;4517;49.020;12.066;2022-11-11T01:55:12;6.00;99.90
8965;DHT22;4517;49.020;12.066;2022-11-11T01:57:54;6.10;99.90
8965;DHT22;4517;49.020;12.066;2022-11-11T02:00:21;6.10;99.90
8965;DHT22;4517;49.020;12.066;2022-11-11T02:02:53;6.10;99.90
8965;DHT22;4517;49.020;12.066;2022-11-11T02:05:21;6.10;99.90
8965;DHT22;4517;49.020;12.066;2022-11-11T02:10:42;6.10;99.90
8965;DHT22;4517;49.020;12.066;2022-11-11T02:13:14;6.10;99.90
8965;DHT22;4517;49.020;12.066;2022-11-11T02:15:58;6.20;99.90
8965;DHT22;4517;49.020;12.066;2022-11-11T02:18:24;6.10;99.90
8965;DHT22;4517;49.020;12.066;2022-11-11T02:20:50;6.20;99.90
8965;DHT22;4517;49.020;12.066;2022-11-11T02:23:42;6.20;99.90
8965;DHT22;4517;49.020;12.066;2022-11-11T02:26:10;6.30;99.90
8965;DHT22;4517;49.020;12.066;2022-11-11T02:28:38;6.30;99.90
8965;DHT22;4517;49.020;12.066;2022-11-11T02:31:04;6.40;99.90
8965;DHT22;4517;49.020;12.066;2022-11-11T02:33:29;6.40;99.90
8965;DHT22;4517;49.020;12.066;2022-11-11T02:35:57;6.40;99.90
8965;DHT22;4517;49.020;12.066;2022-11-11T02:38:24;6.50;99.90
8965;DHT22;4517;49.020;12.066;2022-11-11T02:40:50;6.50;99.90
8965;DHT22;4517;49.020;12.066;2022-11-11T02:43:35;6.40;99.90
8965;DHT22;4517;49.020;12.066;2022-11-11T02:46:03;6.50;99.90
8965;DHT22;4517;49.020;12.066;2022-11-11T02:48:28;6.50;99.90
8965;DHT22;4517;49.020;12.066;2022-11-11T02:50:54;6.50;99.90
8965;DHT22;4517;49.020;12.066;2022-11-11T02:53:21;6.50;99.90
8965;DHT22;4517;49.020;12.066;2022-11-11T02:55:46;6.50;99.90
8965;DHT22;4517;49.020;12.066;2022-11-11T02:58:12;6.40;99.90
8965;DHT22;4517;49.020;12.066;2022-11-11T03:00:39;6.40;99.90
8965;DHT22;4517;49.020;12.066;2022-11-11T03:03:04;6.40;99.90
8965;DHT22;4517;49.020;12.066;2022-11-11T03:05:30;6.30;99.90
8965;DHT22;4517;49.020;12.066;2022-11-11T03:07:55;6.30;99.90
8965;DHT22;4517;49.020;12.066;2022-11-11T03:10:21;6.30;99.90
8965;DHT22;4517;49.020;12.066;2022-11-11T03:12:46;6.30;99.90
8965;DHT22;4517;49.020;12.066;2022-11-11T03:15:12;6.30;99.90
8965;DHT22;4517;49.020;12.066;2022-11-11T03:17:38;6.30;99.90
8965;DHT22;4517;49.020;12.066;2022-11-11T03:23:09;6.40;99.90
8965;DHT22;4517;49.020;12.066;2022-11-11T03:25:48;6.40;99.90
8965;DHT22;4517;49.020;12.066;2022-11-11T03:28:18;6.40;99.90
8965;DHT22;4517;49.020;12.066;2022-11-11T03:30:46;6.40;99.90
8965;DHT22;4517;49.020;12.066;2022-11-11T03:33:13;6.40;99.90
8965;DHT22;4517;49.020;12.066;2022-11-11T03:35:39;6.40;99.90
8965;DHT22;4517;49.020;12.066;2022-11-11T03:38:06;6.40;99.90
8965;DHT22;4517;49.020;12.066;2022-11-11T03:40:45;6.40;99.90
8965;DHT22;4517;49.020;12.066;2022-11-11T03:43:13;6.40;99.90
8965;DHT22;4517;49.020;12.066;2022-11-11T03:45:39;6.40;99.90
8965;DHT22;4517;49.020;12.066;2022-11-11T03:48:04;6.30;99.90
8965;DHT22;4517;49.020;12.066;2022-11-11T03:50:31;6.30;99.90
8965;DHT22;4517;49.020;12.066;2022-11-11T03:52:56;6.30;99.90
8965;DHT22;4517;49.020;12.066;2022-11-11T03:55:22;6.30;99.90
8965;DHT22;4517;49.020;12.066;2022-11-11T03:57:48;6.30;99.90
8965;DHT22;4517;49.020;12.066;2022-11-11T04:00:16;6.30;99.90
8965;DHT22;4517;49.020;12.066;2022-11-11T04:02:42;6.30;99.90
8965;DHT22;4517;49.020;12.066;2022-11-11T04:05:26;6.30;99.90
8965;DHT22;4517;49.020;12.066;2022-11-11T04:08:12;6.30;99.90
8965;DHT22;4517;49.020;12.066;2022-11-11T04:10:58;6.20;99.90
8965;DHT22;4517;49.020;12.066;2022-11-11T04:13:26;6.10;99.90
8965;DHT22;4517;49.020;12.066;2022-11-11T04:16:11;6.10;99.90
8965;DHT22;4517;49.020;12.066;2022-11-11T04:18:37;6.10;99.90
8965;DHT22;4517;49.020;12.066;2022-11-11T04:21:22;6.10;99.90
8965;DHT22;4517;49.020;12.066;2022-11-11T04:24:11;6.10;99.90
8965;DHT22;4517;49.020;12.066;2022-11-11T04:26:56;6.10;99.90
8965;DHT22;4517;49.020;12.066;2022-11-11T04:29:22;6.10;99.90
8965;DHT22;4517;49.020;12.066;2022-11-11T04:32:05;6.10;99.90
8965;DHT22;4517;49.020;12.066;2022-11-11T04:34:54;6.10;99.90
8965;DHT22;4517;49.020;12.066;2022-11-11T04:37:21;6.10;99.90
8965;DHT22;4517;49.020;12.066;2022-11-11T04:39:48;6.10;99.90
8965;DHT22;4517;49.020;12.066;2022-11-11T04:42:33;6.10;99.90
8965;DHT22;4517;49.020;12.066;2022-11-11T04:44:59;6.00;99.90
8965;DHT22;4517;49.020;12.066;2022-11-11T04:48:00;6.00;99.90
8965;DHT22;4517;49.020;12.066;2022-11-11T04:50:34;5.90;99.90
8965;DHT22;4517;49.020;12.066;2022-11-11T04:53:01;5.90;99.90
8965;DHT22;4517;49.020;12.066;2022-11-11T04:55:27;5.80;99.90
8965;DHT22;4517;49.020;12.066;2022-11-11T04:58:11;5.80;99.90
8965;DHT22;4517;49.020;12.066;2022-11-11T05:00:37;5.80;99.90
8965;DHT22;4517;49.020;12.066;2022-11-11T05:03:03;5.70;99.90
8965;DHT22;4517;49.020;12.066;2022-11-11T05:08:32;5.70;99.90
8965;DHT22;4517;49.020;12.066;2022-11-11T05:11:18;5.60;99.90
8965;DHT22;4517;49.020;12.066;2022-11-11T05:13:44;5.60;99.90
8965;DHT22;4517;49.020;12.066;2022-11-11T05:16:32;5.60;99.90
8965;DHT22;4517;49.020;12.066;2022-11-11T05:19:16;5.60;99.90
8965;DHT22;4517;49.020;12.066;2022-11-11T05:22:21;5.60;99.90
8965;DHT22;4517;49.020;12.066;2022-11-11T05:24:47;5.60;99.90
8965;DHT22;4517;49.020;12.066;2022-11-11T05:27:32;5.50;99.90
8965;DHT22;4517;49.020;12.066;2022-11-11T05:29:58;5.60;99.90
8965;DHT22;4517;49.020;12.066;2022-11-11T05:32:24;5.60;99.90
8965;DHT22;4517;49.020;12.066;2022-11-11T05:34:49;5.60;99.90
8965;DHT22;4517;49.020;12.066;2022-11-11T05:37:15;5.60;99.90
8965;DHT22;4517;49.020;12.066;2022-11-11T05:39:41;5.60;99.90
8965;DHT22;4517;49.020;12.066;2022-11-11T05:42:07;5.50;99.90
8965;DHT22;4517;49.020;12.066;2022-11-11T05:44:33;5.60;99.90
8965;DHT22;4517;49.020;12.066;2022-11-11T05:46:59;5.60;99.90
8965;DHT22;4517;49.020;12.066;2022-11-11T05:49:25;5.60;99.90
8965;DHT22;4517;49.020;12.066;2022-11-11T05:51:51;5.60;99.90
8965;DHT22;4517;49.020;12.066;2022-11-11T05:54:17;5.60;99.90
8965;DHT22;4517;49.020;12.066;2022-11-11T05:56:43;5.60;99.90
8965;DHT22;4517;49.020;12.066;2022-11-11T05:59:09;5.70;99.90
8965;DHT22;4517;49.020;12.066;2022-11-11T06:01:35;5.70;99.90
8965;DHT22;4517;49.020;12.066;2022-11-11T06:04:01;5.70;99.90
8965;DHT22;4517;49.020;12.066;2022-11-11T06:06:27;5.70;99.90
8965;DHT22;4517;49.020;12.066;2022-11-11T06:08:53;5.60;99.90
8965;DHT22;4517;49.020;12.066;2022-11-11T06:11:19;5.60;99.90
8965;DHT22;4517;49.020;12.066;2022-11-11T06:13:44;5.70;99.90
8965;DHT22;4517;49.020;12.066;2022-11-11T06:16:11;5.70;99.90
8965;DHT22;4517;49.020;12.066;2022-11-11T06:18:36;5.60;99.90
8965;DHT22;4517;49.020;12.066;2022-11-11T06:21:02;5.60;99.90
8965;DHT22;4517;49.020;12.066;2022-11-11T06:23:29;5.60;99.90
8965;DHT22;4517;49.020;12.066;2022-11-11T06:25:55;5.70;99.90
8965;DHT22;4517;49.020;12.066;2022-11-11T06:31:17;5.60;99.90
8965;DHT22;4517;49.020;12.066;2022-11-11T06:33:43;5.70;99.90
8965;DHT22;4517;49.020;12.066;2022-11-11T06:36:10;5.70;99.90
8965;DHT22;4517;49.020;12.066;2022-11-11T06:38:38;5.70;99.90
8965;DHT22;4517;49.020;12.066;2022-11-11T06:41:03;5.70;99.90
8965;DHT22;4517;49.020;12.066;2022-11-11T06:43:29;5.80;99.90
8965;DHT22;4517;49.020;12.066;2022-11-11T06:45:55;5.80;99.90
8965;DHT22;4517;49.020;12.066;2022-11-11T06:48:25;5.80;99.90
8965;DHT22;4517;49.020;12.066;2022-11-11T06:50:51;5.90;99.90
8965;DHT22;4517;49.020;12.066;2022-11-11T06:53:20;5.90;99.90
8965;DHT22;4517;49.020;12.066;2022-11-11T06:55:46;6.00;99.90
8965;DHT22;4517;49.020;12.066;2022-11-11T06:58:13;6.00;99.90
8965;DHT22;4517;49.020;12.066;2022-11-11T07:00:41;6.00;99.90
8965;DHT22;4517;49.020;12.066;2022-11-11T07:03:10;6.00;99.90
8965;DHT22;4517;49.020;12.066;2022-11-11T07:05:35;6.10;99.90
8965;DHT22;4517;49.020;12.066;2022-11-11T07:08:10;6.10;99.90
8965;DHT22;4517;49.020;12.066;2022-11-11T07:10:37;6.10;99.90
8965;DHT22;4517;49.020;12.066;2022-11-11T07:13:08;6.10;99.90
8965;DHT22;4517;49.020;12.066;2022-11-11T07:15:39;6.10;99.90
8965;DHT22;4517;49.020;12.066;2022-11-11T07:18:11;6.20;99.90
8965;DHT22;4517;49.020;12.066;2022-11-11T07:20:37;6.20;99.90
8965;DHT22;4517;49.020;12.066;2022-11-11T07:23:03;6.20;99.90
8965;DHT22;4517;49.020;12.066;2022-11-11T07:25:29;6.20;99.90
8965;DHT22;4517;49.020;12.066;2022-11-11T07:27:55;6.20;99.90
8965;DHT22;4517;49.020;12.066;2022-11-11T07:30:21;6.20;99.90
8965;DHT22;4517;49.020;12.066;2022-11-11T07:32:48;6.20;99.90
8965;DHT22;4517;49.020;12.066;2022-11-11T07:35:15;6.30;99.90
8965;DHT22;4517;49.020;12.066;2022-11-11T07:37:42;6.30;99.90
8965;DHT22;4517;49.020;12.066;2022-11-11T07:40:10;6.40;99.90
8965;DHT22;4517;49.020;12.066;2022-11-11T07:42:40;6.30;99.90
8965;DHT22;4517;49.020;12.066;2022-11-11T07:45:07;6.30;99.90
8965;DHT22;4517;49.020;12.066;2022-11-11T07:47:32;6.40;99.90
8965;DHT22;4517;49.020;12.066;2022-11-11T07:50:05;6.30;99.90
8965;DHT22;4517;49.020;12.066;2022-11-11T07:52:31;6.30;99.90
8965;DHT22;4517;49.020;12.066;2022-11-11T07:54:57;6.20;99.90
8965;DHT22;4517;49.020;12.066;2022-11-11T07:57:23;6.20;99.90
8965;DHT22;4517;49.020;12.066;2022-11-11T07:59:48;6.20;99.90
8965;DHT22;4517;49.020;12.066;2022-11-11T08:02:15;6.20;99.90
8965;DHT22;4517;49.020;12.066;2022-11-11T08:04:41;6.30;99.90
8965;DHT22;4517;49.020;12.066;2022-11-11T08:07:06;6.30;99.90
8965;DHT22;4517;49.020;12.066;2022-11-11T08:09:32;6.40;99.90
8965;DHT22;4517;49.020;12.066;2022-11-11T08:11:57;6.40;99.90
8965;DHT22;4517;49.020;12.066;2022-11-11T08:14:42;6.40;99.90
8965;DHT22;4517;49.020;12.066;2022-11-11T08:17:07;6.40;99.90
8965;DHT22;4517;49.020;12.066;2022-11-11T08:19:33;6.40;99.90
8965;DHT22;4517;49.020;12.066;2022-11-11T08:21:58;6.50;99.90
8965;DHT22;4517;49.020;12.066;2022-11-11T08:24:24;6.60;99.90
8965;DHT22;4517;49.020;12.066;2022-11-11T08:26:50;6.50;99.90
8965;DHT22;4517;49.020;12.066;2022-11-11T08:29:16;6.50;99.90
8965;DHT22;4517;49.020;12.066;2022-11-11T08:31:41;6.50;99.90
8965;DHT22;4517;49.020;12.066;2022-11-11T08:34:07;6.50;99.90
8965;DHT22;4517;49.020;12.066;2022-11-11T08:36:33;6.60;99.90
8965;DHT22;4517;49.020;12.066;2022-11-11T08:38:58;6.50;99.90
8965;DHT22;4517;49.020;12.066;2022-11-11T08:41:24;6.50;99.90
8965;DHT22;4517;49.020;12.066;2022-11-11T08:43:54;6.50;99.90
8965;DHT22;4517;49.020;12.066;2022-11-11T08:46:20;6.60;99.90
8965;DHT22;4517;49.020;12.066;2022-11-11T08:48:46;6.60;99.90
8965;DHT22;4517;49.020;12.066;2022-11-11T08:51:12;6.60;99.90
8965;DHT22;4517;49.020;12.066;2022-11-11T08:53:38;6.70;99.90
8965;DHT22;4517;49.020;12.066;2022-11-11T08:56:04;6.60;99.90
8965;DHT22;4517;49.020;12.066;2022-11-11T08:58:30;6.60;99.90
8965;DHT22;4517;49.020;12.066;2022-11-11T09:00:56;6.70;99.90
8965;DHT22;4517;49.020;12.066;2022-11-11T09:03:22;6.80;99.90
8965;DHT22;4517;49.020;12.066;2022-11-11T09:05:48;6.80;99.90
8965;DHT22;4517;49.020;12.066;2022-11-11T09:08:14;6.80;99.90
8965;DHT22;4517;49.020;12.066;2022-11-11T09:10:40;6.80;99.90
8965;DHT22;4517;49.020;12.066;2022-11-11T09:13:06;6.90;99.90
8965;DHT22;4517;49.020;12.066;2022-11-11T09:15:32;6.80;99.90
8965;DHT22;4517;49.020;12.066;2022-11-11T09:17:58;6.90;99.90
8965;DHT22;4517;49.020;12.066;2022-11-11T09:20:23;6.90;99.90
8965;DHT22;4517;49.020;12.066;2022-11-11T09:22:50;6.80;99.90
8965;DHT22;4517;49.020;12.066;2022-11-11T09:25:18;6.90;99.90
8965;DHT22;4517;49.020;12.066;2022-11-11T09:27:44;7.00;99.90
8965;DHT22;4517;49.020;12.066;2022-11-11T09:30:18;7.30;99.90
8965;DHT22;4517;49.020;12.066;2022-11-11T09:32:46;7.40;99.90
8965;DHT22;4517;49.020;12.066;2022-11-11T09:35:17;7.60;99.90
8965;DHT22;4517;49.020;12.066;2022-11-11T09:37:56;7.80;99.90
8965;DHT22;4517;49.020;12.066;2022-11-11T09:40:23;7.90;99.90
8965;DHT22;4517;49.020;12.066;2022-11-11T09:43:04;8.10;99.90
8965;DHT22;4517;49.020;12.066;2022-11-11T09:46:05;8.00;99.90
8965;DHT22;4517;49.020;12.066;2022-11-11T09:54:31;8.20;99.90
8965;DHT22;4517;49.020;12.066;2022-11-11T09:57:02;8.30;99.90
8965;DHT22;4517;49.020;12.066;2022-11-11T09:59:39;8.20;99.90
8965;DHT22;4517;49.020;12.066;2022-11-11T10:02:27;7.80;99.90
8965;DHT22;4517;49.020;12.066;2022-11-11T10:05:08;7.60;99.90
8965;DHT22;4517;49.020;12.066;2022-11-11T10:10:28;8.00;99.90
8965;DHT22;4517;49.020;12.066;2022-11-11T10:12:56;8.10;99.90
8965;DHT22;4517;49.020;12.066;2022-11-11T10:15:31;8.10;99.90
8965;DHT22;4517;49.020;12.066;2022-11-11T10:20:56;8.20;99.90
8965;DHT22;4517;49.020;12.066;2022-11-11T10:23:28;8.40;99.90
8965;DHT22;4517;49.020;12.066;2022-11-11T10:25:56;8.60;99.90
8965;DHT22;4517;49.020;12.066;2022-11-11T10:28:34;8.60;99.90
8965;DHT22;4517;49.020;12.066;2022-11-11T10:31:05;8.70;99.90
8965;DHT22;4517;49.020;12.066;2022-11-11T10:33:58;8.50;99.90
8965;DHT22;4517;49.020;12.066;2022-11-11T10:36:27;8.50;99.90
8965;DHT22;4517;49.020;12.066;2022-11-11T10:39:03;8.70;99.90
8965;DHT22;4517;49.020;12.066;2022-11-11T10:43:58;8.90;99.90
8965;DHT22;4517;49.020;12.066;2022-11-11T10:46:37;8.80;99.90
8965;DHT22;4517;49.020;12.066;2022-11-11T10:49:13;9.00;99.90
8965;DHT22;4517;49.020;12.066;2022-11-11T10:51:55;9.00;99.90
8965;DHT22;4517;49.020;12.066;2022-11-11T10:54:44;8.80;99.90
8965;DHT22;4517;49.020;12.066;2022-11-11T10:57:15;8.80;99.90
8965;DHT22;4517;49.020;12.066;2022-11-11T10:59:52;8.80;99.90
8965;DHT22;4517;49.020;12.066;2022-11-11T11:02:44;9.00;99.90
8965;DHT22;4517;49.020;12.066;2022-11-11T11:05:27;9.10;99.90
8965;DHT22;4517;49.020;12.066;2022-11-11T11:07:59;9.20;99.90
8965;DHT22;4517;49.020;12.066;2022-11-11T11:10:36;9.10;99.90
8965;DHT22;4517;49.020;12.066;2022-11-11T11:13:06;9.40;99.90
8965;DHT22;4517;49.020;12.066;2022-11-11T11:15:38;9.30;99.90
8965;DHT22;4517;49.020;12.066;2022-11-11T11:18:11;9.10;99.90
8965;DHT22;4517;49.020;12.066;2022-11-11T11:20:37;9.00;99.90
8965;DHT22;4517;49.020;12.066;2022-11-11T11:23:04;8.90;99.90
8965;DHT22;4517;49.020;12.066;2022-11-11T11:25:32;8.80;99.90
8965;DHT22;4517;49.020;12.066;2022-11-11T11:28:06;8.90;99.90
8965;DHT22;4517;49.020;12.066;2022-11-11T11:30:32;9.10;99.90
8965;DHT22;4517;49.020;12.066;2022-11-11T11:33:05;9.30;99.90
8965;DHT22;4517;49.020;12.066;2022-11-11T11:35:42;9.20;99.90
8965;DHT22;4517;49.020;12.066;2022-11-11T11:38:10;9.40;99.90
8965;DHT22;4517;49.020;12.066;2022-11-11T11:40:50;9.50;99.90
8965;DHT22;4517;49.020;12.066;2022-11-11T11:43:34;9.40;99.90
8965;DHT22;4517;49.020;12.066;2022-11-11T11:46:03;9.30;99.90
8965;DHT22;4517;49.020;12.066;2022-11-11T11:48:59;9.30;99.90
8965;DHT22;4517;49.020;12.066;2022-11-11T11:56:48;9.40;99.90
8965;DHT22;4517;49.020;12.066;2022-11-11T11:59:27;9.40;99.90
8965;DHT22;4517;49.020;12.066;2022-11-11T12:04:40;9.60;99.90
8965;DHT22;4517;49.020;12.066;2022-11-11T12:07:19;9.50;99.90
8965;DHT22;4517;49.020;12.066;2022-11-11T12:10:05;9.50;99.90
8965;DHT22;4517;49.020;12.066;2022-11-11T12:12:54;9.40;99.90
8965;DHT22;4517;49.020;12.066;2022-11-11T12:15:24;9.50;99.90
8965;DHT22;4517;49.020;12.066;2022-11-11T12:18:49;9.50;99.90
8965;DHT22;4517;49.020;12.066;2022-11-11T12:21:18;9.40;99.90
8965;DHT22;4517;49.020;12.066;2022-11-11T12:29:20;9.50;99.90
8965;DHT22;4517;49.020;12.066;2022-11-11T12:35:05;9.40;99.90
8965;DHT22;4517;49.020;12.066;2022-11-11T12:43:01;9.10;99.90
8965;DHT22;4517;49.020;12.066;2022-11-11T12:45:44;9.20;99.90
8965;DHT22;4517;49.020;12.066;2022-11-11T12:54:30;9.00;99.90
8965;DHT22;4517;49.020;12.066;2022-11-11T12:57:08;9.00;99.90
8965;DHT22;4517;49.020;12.066;2022-11-11T13:06:11;9.40;99.90
8965;DHT22;4517;49.020;12.066;2022-11-11T13:08:57;9.40;99.90
8965;DHT22;4517;49.020;12.066;2022-11-11T13:11:43;9.50;99.90
8965;DHT22;4517;49.020;12.066;2022-11-11T13:14:42;9.40;99.90
8965;DHT22;4517;49.020;12.066;2022-11-11T13:17:13;9.40;99.90
8965;DHT22;4517;49.020;12.066;2022-11-11T13:19:45;9.40;99.90
8965;DHT22;4517;49.020;12.066;2022-11-11T13:22:20;9.40;99.90
8965;DHT22;4517;49.020;12.066;2022-11-11T13:24:48;9.40;99.90
8965;DHT22;4517;49.020;12.066;2022-11-11T13:27:23;9.40;99.90
8965;DHT22;4517;49.020;12.066;2022-11-11T13:32:45;9.20;99.90
8965;DHT22;4517;49.020;12.066;2022-11-11T13:35:20;9.10;99.90
8965;DHT22;4517;49.020;12.066;2022-11-11T13:37:46;9.20;99.90
8965;DHT22;4517;49.020;12.066;2022-11-11T13:40:44;9.20;99.90
8965;DHT22;4517;49.020;12.066;2022-11-11T13:43:16;9.10;99.90
8965;DHT22;4517;49.020;12.066;2022-11-11T13:45:49;9.20;99.90
8965;DHT22;4517;49.020;12.066;2022-11-11T13:48:46;9.10;99.90
8965;DHT22;4517;49.020;12.066;2022-11-11T13:51:46;9.20;99.90
8965;DHT22;4517;49.020;12.066;2022-11-11T13:54:29;9.20;99.90
8965;DHT22;4517;49.020;12.066;2022-11-11T13:59:33;9.30;99.90
8965;DHT22;4517;49.020;12.066;2022-11-11T14:12:51;9.00;99.90
8965;DHT22;4517;49.020;12.066;2022-11-11T14:20:44;8.80;99.90
8965;DHT22;4517;49.020;12.066;2022-11-11T14:23:32;8.80;99.90
8965;DHT22;4517;49.020;12.066;2022-11-11T14:41:50;8.50;99.90
8965;DHT22;4517;49.020;12.066;2022-11-11T14:49:52;8.30;99.90
8965;DHT22;4517;49.020;12.066;2022-11-11T14:57:48;8.10;99.90
8965;DHT22;4517;49.020;12.066;2022-11-11T15:00:19;8.00;99.90
8965;DHT22;4517;49.020;12.066;2022-11-11T15:02:54;8.00;99.90
8965;DHT22;4517;49.020;12.066;2022-11-11T15:05:47;8.00;99.90
8965;DHT22;4517;49.020;12.066;2022-11-11T15:08:48;7.90;99.90
8965;DHT22;4517;49.020;12.066;2022-11-11T15:11:38;7.90;99.90
8965;DHT22;4517;49.020;12.066;2022-11-11T15:14:41;7.90;99.90
8965;DHT22;4517;49.020;12.066;2022-11-11T15:17:35;7.80;99.90
8965;DHT22;4517;49.020;12.066;2022-11-11T15:31:24;7.60;99.90
8965;DHT22;4517;49.020;12.066;2022-11-11T15:37:02;7.60;99.90
8965;DHT22;4517;49.020;12.066;2022-11-11T15:39:41;7.60;99.90
8965;DHT22;4517;49.020;12.066;2022-11-11T15:42:17;7.60;99.90
8965;DHT22;4517;49.020;12.066;2022-11-11T15:44:45;7.50;99.90
8965;DHT22;4517;49.020;12.066;2022-11-11T15:47:13;7.50;99.90
8965;DHT22;4517;49.020;12.066;2022-11-11T15:49:44;7.40;99.90
8965;DHT22;4517;49.020;12.066;2022-11-11T15:52:35;7.50;99.90
8965;DHT22;4517;49.020;12.066;2022-11-11T15:55:25;7.50;99.90
8965;DHT22;4517;49.020;12.066;2022-11-11T15:57:51;7.50;99.90
8965;DHT22;4517;49.020;12.066;2022-11-11T16:02:49;7.40;99.90
8965;DHT22;4517;49.020;12.066;2022-11-11T16:05:26;7.40;99.90
8965;DHT22;4517;49.020;12.066;2022-11-11T16:07:55;7.40;99.90
8965;DHT22;4517;49.020;12.066;2022-11-11T16:10:28;7.30;99.90
8965;DHT22;4517;49.020;12.066;2022-11-11T16:12:57;7.40;99.90
8965;DHT22;4517;49.020;12.066;2022-11-11T16:15:46;7.30;99.90
8965;DHT22;4517;49.020;12.066;2022-11-11T16:18:25;7.40;99.90
8965;DHT22;4517;49.020;12.066;2022-11-11T16:23:20;7.30;99.90
8965;DHT22;4517;49.020;12.066;2022-11-11T16:25:47;7.40;99.90
8965;DHT22;4517;49.020;12.066;2022-11-11T16:28:14;7.40;99.90
8965;DHT22;4517;49.020;12.066;2022-11-11T16:30:40;7.40;99.90
8965;DHT22;4517;49.020;12.066;2022-11-11T16:33:18;7.30;99.90
8965;DHT22;4517;49.020;12.066;2022-11-11T16:35:44;7.30;99.90
8965;DHT22;4517;49.020;12.066;2022-11-11T16:38:10;7.30;99.90
8965;DHT22;4517;49.020;12.066;2022-11-11T16:40:40;7.30;99.90
8965;DHT22;4517;49.020;12.066;2022-11-11T16:43:26;7.30;99.90
8965;DHT22;4517;49.020;12.066;2022-11-11T16:51:20;7.20;99.90
8965;DHT22;4517;49.020;12.066;2022-11-11T16:53:52;7.30;99.90
8965;DHT22;4517;49.020;12.066;2022-11-11T16:56:29;7.30;99.90
8965;DHT22;4517;49.020;12.066;2022-11-11T16:59:05;7.30;99.90
8965;DHT22;4517;49.020;12.066;2022-11-11T17:01:43;7.30;99.90
8965;DHT22;4517;49.020;12.066;2022-11-11T17:04:09;7.30;99.90
8965;DHT22;4517;49.020;12.066;2022-11-11T17:06:54;7.30;99.90
8965;DHT22;4517;49.020;12.066;2022-11-11T17:11:56;7.30;99.90
8965;DHT22;4517;49.020;12.066;2022-11-11T17:14:22;7.30;99.90
8965;DHT22;4517;49.020;12.066;2022-11-11T17:16:48;7.30;99.90
8965;DHT22;4517;49.020;12.066;2022-11-11T17:19:13;7.30;99.90
8965;DHT22;4517;49.020;12.066;2022-11-11T17:21:39;7.30;99.90
8965;DHT22;4517;49.020;12.066;2022-11-11T17:24:05;7.30;99.90
8965;DHT22;4517;49.020;12.066;2022-11-11T17:26:30;7.30;99.90
8965;DHT22;4517;49.020;12.066;2022-11-11T17:28:56;7.30;99.90
8965;DHT22;4517;49.020;12.066;2022-11-11T17:31:22;7.30;99.90
8965;DHT22;4517;49.020;12.066;2022-11-11T17:33:51;7.30;99.90
8965;DHT22;4517;49.020;12.066;2022-11-11T17:36:16;7.30;99.90
8965;DHT22;4517;49.020;12.066;2022-11-11T17:38:42;7.30;99.90
8965;DHT22;4517;49.020;12.066;2022-11-11T17:41:12;7.40;99.90
8965;DHT22;4517;49.020;12.066;2022-11-11T17:43:38;7.40;99.90
8965;DHT22;4517;49.020;12.066;2022-11-11T17:46:04;7.40;99.90
8965;DHT22;4517;49.020;12.066;2022-11-11T17:48:30;7.40;99.90
8965;DHT22;4517;49.020;12.066;2022-11-11T17:50:56;7.40;99.90
8965;DHT22;4517;49.020;12.066;2022-11-11T17:53:22;7.40;99.90
8965;DHT22;4517;49.020;12.066;2022-11-11T17:55:48;7.40;99.90
8965;DHT22;4517;49.020;12.066;2022-11-11T17:58:15;7.40;99.90
8965;DHT22;4517;49.020;12.066;2022-11-11T18:00:41;7.40;99.90
8965;DHT22;4517;49.020;12.066;2022-11-11T18:03:07;7.40;99.90
8965;DHT22;4517;49.020;12.066;2022-11-11T18:05:33;7.40;99.90
8965;DHT22;4517;49.020;12.066;2022-11-11T18:07:59;7.40;99.90
8965;DHT22;4517;49.020;12.066;2022-11-11T18:10:25;7.40;99.90
8965;DHT22;4517;49.020;12.066;2022-11-11T18:12:51;7.40;99.90
8965;DHT22;4517;49.020;12.066;2022-11-11T18:15:16;7.40;99.90
8965;DHT22;4517;49.020;12.066;2022-11-11T18:17:42;7.40;99.90
8965;DHT22;4517;49.020;12.066;2022-11-11T18:20:08;7.40;99.90
8965;DHT22;4517;49.020;12.066;2022-11-11T18:22:33;7.40;99.90
8965;DHT22;4517;49.020;12.066;2022-11-11T18:24:59;7.40;99.90
8965;DHT22;4517;49.020;12.066;2022-11-11T18:27:25;7.40;99.90
8965;DHT22;4517;49.020;12.066;2022-11-11T18:29:50;7.30;99.90
8965;DHT22;4517;49.020;12.066;2022-11-11T18:32:16;7.30;99.90
8965;DHT22;4517;49.020;12.066;2022-11-11T18:34:41;7.30;99.90
8965;DHT22;4517;49.020;12.066;2022-11-11T18:37:07;7.20;99.90
8965;DHT22;4517;49.020;12.066;2022-11-11T18:39:33;7.20;99.90
8965;DHT22;4517;49.020;12.066;2022-11-11T18:41:58;7.20;99.90
8965;DHT22;4517;49.020;12.066;2022-11-11T18:44:24;7.20;99.90
8965;DHT22;4517;49.020;12.066;2022-11-11T18:46:49;7.20;99.90
8965;DHT22;4517;49.020;12.066;2022-11-11T18:49:15;7.10;99.90
8965;DHT22;4517;49.020;12.066;2022-11-11T18:51:41;7.10;99.90
8965;DHT22;4517;49.020;12.066;2022-11-11T18:54:07;7.10;99.90
8965;DHT22;4517;49.020;12.066;2022-11-11T18:56:37;7.00;99.90
8965;DHT22;4517;49.020;12.066;2022-11-11T18:59:04;7.00;99.90